Aviation Digital Data Service (ADDS)

Output produced by METARs form (0107 UTC 01 November 2014)
found at http://aviationweather.gov/adds/metars/
 
KBHB 312320Z 0100/0124 36004KT P6SM OVC035 
     FM011200 04012G22KT P6SM OVC020 
     FM011800 01016G24KT 6SM -DZ BR OVC012 AMD LTD TO CLD VIS AND WIND